Historyczne dane pomiarowe

Dodano dane terminowe – wersja testowa.

Dane z okresu 1951-2019

Wersja bazy: 1.34 [2019-03-16, lista zmian], aktualizacja planowana na 2019-04-15

Dane meteo z obszaru Polski uzyskane na podstawie danych udostępnionych przez Instytut Meteorologii i Gospodarki Wodnej – Państwowy Instytut Badawczy.

 

Wybierz Datę:    

       

TemperaturaWilgotnośćWiatrCiśnienieOpadyŚniegCzas trwania zjawisk
 Stacja t tx tn tng RH VA  wxwx mslp ppp RRR   cm mm wxwxwxwxwxwxwx
1983-08-14 10.8 14.5 6.9 6.0 84.8- 5.0 1.3---- 0.8------------
1983-08-13 13.4 18.5 10.8 10.8 75.8- 6.7 2.7---- 2.8------------
1983-08-12 16.1 23.5 10.1 9.8 83.3- 2.3 1.3---- 0.0------------
1983-08-11 15.8 21.8 10.1 8.4 87.0- 6.7 1.3---- 0.0------------
1983-08-10 16.0 22.1 9.3 8.9 82.5- 1.3 1.0---- 0.0------------
1983-08-09 15.5 22.6 11.0 10.1 88.5- 7.3 1.0---- 6.8------------
1983-08-08 15.6 20.2 13.3 12.0 89.3- 6.7 1.3---- 3.8------------
1983-08-07 12.3 15.4 10.4 10.7 95.3- 8.0 1.0---- 14.1------------
1983-08-06 12.1 16.5 8.3 7.5 83.8- 7.3 1.3---- 2.3------------
1983-08-05 10.7 14.5 7.3 9.8 82.3- 8.0 1.3---- 0.0------------
1983-08-04 10.0 17.5 8.7 9.7 93.5- 8.0 1.0---- 3.6------------
1983-08-03 17.3 23.6 14.8 14.8 88.0- 7.7 1.0---- 8.0------------
1983-08-02 17.0 26.2 11.4 9.6 81.0- 7.7 1.0---- 19.5------------
1983-08-01 17.0 27.6 7.2 6.9 72.0- 0.0 1.0---- 0.0------------
1983-07-31 14.7 22.5 6.7 5.6 80.3- 0.0 1.3---- 0.0------------
1983-07-30 15.8 19.5 11.3 9.6 87.8- 6.0 1.0---- 0.8------------
1983-07-29 15.9 24.2 10.6 9.1 80.8- 5.7 1.0---- 2.4------------
1983-07-28 19.9 25.5 14.4 12.8 75.8- 6.0 1.7---- 0.0------------
1983-07-27 18.3 27.6 9.3 8.0 73.8- 1.0 1.0---- 0.0------------
1983-07-26 16.2 23.8 9.3 8.8 79.8- 2.7 1.3---- 0.0------------
1983-07-25 13.7 18.3 9.2 7.4 78.3- 7.0 1.0---- 0.0------------
1983-07-24 13.5 20.7 6.7 5.4 87.5- 3.0 1.0---- 0.0------------
1983-07-23 13.9 18.9 11.6 11.4 85.3- 7.7 1.7---- 0.5------------
1983-07-22 9.2 12.5 3.7 2.9 85.5- 8.0 1.7---- 2.7------------
1983-07-21 9.4 16.6 5.8 5.4 79.0- 7.3 1.7---- 0.1------------
1983-07-20 15.1 23.0 9.3 12.9 85.0- 7.7 2.0---- 2.5------------
1983-07-19 19.4 27.1 13.2 11.4 75.0- 2.3 1.0---- 0.0------------
1983-07-18 19.0 27.0 11.3 9.8 74.5- 0.0 1.0---- 0.1------------
1983-07-17 17.4 24.0 10.8 10.0 83.8- 2.7 1.0---- 0.0------------
1983-07-16 16.7 25.4 9.7 13.9 77.3- 2.7 0.3---- 0.0------------
1983-07-15 16.4 21.3 13.8 12.7 81.8- 0.0 1.0---- 0.0------------
1983-07-14 14.6 20.0 12.6 12.2 95.3- 8.0 0.7---- 74.0------------
1983-07-13 16.9 21.6 10.8 8.8 80.8- 7.7 1.3---- 2.9------------
1983-07-12 14.2 19.0 11.0 10.0 95.8- 8.0 1.3---- 96.4------------
1983-07-11 15.3 22.6 9.9 9.8 86.0- 8.0 0.7---- 14.2------------
1983-07-10 17.8 25.2 9.2 7.4 71.3- 0.0 1.0---- 0.0------------
1983-07-09 14.9 27.6 4.5 4.7 75.5- 0.0 1.0---- 0.0------------
1983-07-08 16.0 23.6 7.7 6.4 68.8- 0.0 1.0---- 0.0------------
1983-07-07 18.0 25.6 9.1 9.4 74.5- 1.0 1.0---- 0.0------------
1983-07-06 17.9 25.6 9.3 8.3 74.0- 0.0 1.3---- 0.0------------
1983-07-05 16.7 24.4 7.7 8.2 72.0- 2.0 1.3---- 0.0------------
1983-07-04 14.8 23.0 7.1 10.8 76.8- 0.0 0.7---- 0.0------------
1983-07-03 15.4 21.2 8.2 6.9 78.0- 0.0 1.0---- 0.0------------
1983-07-02 14.6 19.9 10.7 9.3 87.8- 8.0 0.3---- 0.0------------
1983-07-01 15.8 23.5 7.2 5.9 73.8- 3.7 0.7---- 0.0------------
1983-06-30 12.0 21.8 1.7 2.5 71.5- 3.7 1.0---- 0.0------------
1983-06-29 11.7 16.5 7.7 6.9 72.5- 3.3 1.3---- 0.0------------
1983-06-28 13.2 18.5 11.8 12.8 96.8- 8.0 0.7---- 6.0------------
1983-06-27 15.8 23.9 11.4 9.6 86.0- 7.3 0.7---- 5.9------------
1983-06-26 16.7 21.5 13.7 11.9 84.8- 6.7 1.3---- 2.6------------
1983-06-25 18.2 24.6 9.6 7.3 59.8- 0.0 1.7---- 0.1------------
1983-06-24 14.3 23.6 3.8 3.7 70.8- 0.0 1.0---- 0.0------------
1983-06-23 11.2 19.6 1.3 0.1 70.3- 0.0 0.7---- 0.0------------
1983-06-22 13.2 18.5 7.7 9.8 74.5- 0.3 0.7---- 0.0------------
1983-06-21 16.7 22.5 12.1 11.4 77.8- 6.7 0.7---- 0.0------------
1983-06-20 14.4 15.8 12.9 12.3 95.5- 8.0 0.7---- 8.1------------
1983-06-19 11.5 14.6 9.1 9.6 92.5- 8.0 1.3---- 51.8------------
1983-06-18 8.8 11.7 7.1 3.6 94.3- 8.0 1.3---- 27.2------------
1983-06-17 8.6 11.0 7.4 7.0 91.0- 8.0 1.3---- 19.2------------
1983-06-16 8.1 11.5 6.5 7.4 93.0- 8.0 1.0---- 18.0------------
314.0 ms

 

Źródłem pochodzenia danych jest Instytut Meteorologii i Gospodarki Wodnej – Państwowy Instytut Badawczy. Dane Instytutu Meteorologii i Gospodarki Wodnej – Państwowego Instytutu Badawczego zostały przetworzone.

Dane źródłowe można odnaleźć na stronie https://dane.imgw.pl